sensor_id;sensor_type;location;lat;lon;timestamp;pressure;altitude;pressure_sealevel;temperature;humidity
80837;BME280;70251;60.008;30.404;2023-07-20T00:02:24;99320.75;;;18.83;67.64
80837;BME280;70251;60.008;30.404;2023-07-20T00:04:49;99320.53;;;18.84;67.50
80837;BME280;70251;60.008;30.404;2023-07-20T00:07:15;99316.16;;;18.83;67.46
80837;BME280;70251;60.008;30.404;2023-07-20T00:09:41;99328.66;;;18.84;67.49
80837;BME280;70251;60.008;30.404;2023-07-20T00:12:09;99334.88;;;18.85;67.42
80837;BME280;70251;60.008;30.404;2023-07-20T00:14:34;99329.41;;;18.91;67.46
80837;BME280;70251;60.008;30.404;2023-07-20T00:17:06;99341.88;;;18.92;67.16
80837;BME280;70251;60.008;30.404;2023-07-20T00:19:35;99322.72;;;18.94;67.22
80837;BME280;70251;60.008;30.404;2023-07-20T00:22:00;99326.69;;;18.91;67.33
80837;BME280;70251;60.008;30.404;2023-07-20T00:24:30;99328.00;;;18.89;67.62
80837;BME280;70251;60.008;30.404;2023-07-20T00:26:59;99320.25;;;18.92;67.52
80837;BME280;70251;60.008;30.404;2023-07-20T00:29:29;99330.47;;;18.90;67.52
80837;BME280;70251;60.008;30.404;2023-07-20T00:31:54;99333.00;;;18.85;67.62
80837;BME280;70251;60.008;30.404;2023-07-20T00:34:23;99332.09;;;18.91;67.39
80837;BME280;70251;60.008;30.404;2023-07-20T00:36:49;99332.09;;;18.91;67.44
80837;BME280;70251;60.008;30.404;2023-07-20T00:39:14;99329.41;;;18.91;67.31
80837;BME280;70251;60.008;30.404;2023-07-20T00:41:43;99310.09;;;18.88;67.33
80837;BME280;70251;60.008;30.404;2023-07-20T00:44:08;99318.59;;;18.91;67.55
80837;BME280;70251;60.008;30.404;2023-07-20T00:46:34;99325.44;;;18.94;67.44
80837;BME280;70251;60.008;30.404;2023-07-20T00:49:00;99329.41;;;18.91;67.47
80837;BME280;70251;60.008;30.404;2023-07-20T00:51:26;99327.91;;;18.95;67.57
80837;BME280;70251;60.008;30.404;2023-07-20T00:53:52;99325.66;;;18.92;67.71
80837;BME280;70251;60.008;30.404;2023-07-20T00:56:22;99321.47;;;18.96;67.69
80837;BME280;70251;60.008;30.404;2023-07-20T00:58:48;99319.78;;;18.95;67.73
80837;BME280;70251;60.008;30.404;2023-07-20T01:01:14;99327.69;;;18.97;67.62
80837;BME280;70251;60.008;30.404;2023-07-20T01:03:41;99326.88;;;18.96;67.63
80837;BME280;70251;60.008;30.404;2023-07-20T01:09:48;99309.63;;;18.97;68.21
80837;BME280;70251;60.008;30.404;2023-07-20T01:11:54;99325.19;;;18.95;68.33
80837;BME280;70251;60.008;30.404;2023-07-20T01:14:23;99324.41;;;18.95;67.93
80837;BME280;70251;60.008;30.404;2023-07-20T01:16:53;99327.31;;;18.93;68.18
80837;BME280;70251;60.008;30.404;2023-07-20T01:19:19;99316.72;;;18.92;67.91
80837;BME280;70251;60.008;30.404;2023-07-20T01:21:59;99331.84;;;18.99;68.08
80837;BME280;70251;60.008;30.404;2023-07-20T01:27:28;99327.47;;;18.98;67.48
80837;BME280;70251;60.008;30.404;2023-07-20T01:32:33;99328.06;;;19.00;67.22
80837;BME280;70251;60.008;30.404;2023-07-20T01:35:01;99328.44;;;19.04;66.93
80837;BME280;70251;60.008;30.404;2023-07-20T01:37:30;99333.66;;;19.05;67.10
80837;BME280;70251;60.008;30.404;2023-07-20T01:39:59;99336.72;;;19.09;66.82
80837;BME280;70251;60.008;30.404;2023-07-20T01:42:26;99324.88;;;19.10;66.59
80837;BME280;70251;60.008;30.404;2023-07-20T01:44:51;99339.78;;;19.12;66.46
80837;BME280;70251;60.008;30.404;2023-07-20T01:47:23;99331.25;;;19.15;66.45
80837;BME280;70251;60.008;30.404;2023-07-20T01:49:51;99326.91;;;19.14;66.36
80837;BME280;70251;60.008;30.404;2023-07-20T01:52:19;99339.59;;;19.14;66.32
80837;BME280;70251;60.008;30.404;2023-07-20T01:54:45;99326.28;;;19.12;66.29
80837;BME280;70251;60.008;30.404;2023-07-20T01:57:10;99326.28;;;19.12;66.20
80837;BME280;70251;60.008;30.404;2023-07-20T01:59:36;99339.59;;;19.14;66.31
80837;BME280;70251;60.008;30.404;2023-07-20T02:02:01;99330.06;;;19.11;66.11
80837;BME280;70251;60.008;30.404;2023-07-20T02:04:27;99331.47;;;19.14;65.93
80837;BME280;70251;60.008;30.404;2023-07-20T02:06:55;99329.16;;;19.17;65.89
80837;BME280;70251;60.008;30.404;2023-07-20T02:09:21;99335.38;;;19.18;65.87
80837;BME280;70251;60.008;30.404;2023-07-20T02:11:46;99341.63;;;19.18;65.89
80837;BME280;70251;60.008;30.404;2023-07-20T02:14:12;99334.56;;;19.17;65.60
80837;BME280;70251;60.008;30.404;2023-07-20T02:16:41;99336.44;;;19.17;65.98
80837;BME280;70251;60.008;30.404;2023-07-20T02:19:06;99336.44;;;19.17;65.81
80837;BME280;70251;60.008;30.404;2023-07-20T02:21:35;99343.13;;;19.14;65.87
80837;BME280;70251;60.008;30.404;2023-07-20T02:24:00;99341.69;;;19.12;66.00
80837;BME280;70251;60.008;30.404;2023-07-20T02:26:26;99340.44;;;19.14;65.90
80837;BME280;70251;60.008;30.404;2023-07-20T02:28:51;99345.59;;;19.16;65.86
80837;BME280;70251;60.008;30.404;2023-07-20T02:31:17;99336.66;;;19.15;65.87
80837;BME280;70251;60.008;30.404;2023-07-20T02:33:46;99344.16;;;19.13;65.69
80837;BME280;70251;60.008;30.404;2023-07-20T02:36:14;99334.38;;;19.12;66.04
80837;BME280;70251;60.008;30.404;2023-07-20T02:38:43;99345.00;;;19.14;65.91
80837;BME280;70251;60.008;30.404;2023-07-20T02:41:08;99348.53;;;19.14;66.00
80837;BME280;70251;60.008;30.404;2023-07-20T02:43:39;99340.44;;;19.14;65.71
80837;BME280;70251;60.008;30.404;2023-07-20T02:46:04;99339.13;;;19.17;65.99
80837;BME280;70251;60.008;30.404;2023-07-20T02:48:30;99348.75;;;19.13;66.08
80837;BME280;70251;60.008;30.404;2023-07-20T02:50:55;99342.06;;;19.15;66.18
80837;BME280;70251;60.008;30.404;2023-07-20T02:53:21;99340.81;;;19.18;66.07
80837;BME280;70251;60.008;30.404;2023-07-20T02:55:55;99330.81;;;19.18;66.48
80837;BME280;70251;60.008;30.404;2023-07-20T02:58:21;99349.75;;;19.18;66.14
80837;BME280;70251;60.008;30.404;2023-07-20T03:00:46;99346.44;;;19.16;66.22
80837;BME280;70251;60.008;30.404;2023-07-20T03:03:12;99353.25;;;19.19;66.26
80837;BME280;70251;60.008;30.404;2023-07-20T03:05:40;99341.63;;;19.18;66.29
80837;BME280;70251;60.008;30.404;2023-07-20T03:08:06;99339.53;;;19.20;66.15
80837;BME280;70251;60.008;30.404;2023-07-20T03:10:32;99345.16;;;19.19;66.10
80837;BME280;70251;60.008;30.404;2023-07-20T03:12:58;99342.25;;;19.20;66.03
80837;BME280;70251;60.008;30.404;2023-07-20T03:15:23;99345.31;;;19.24;66.05
80837;BME280;70251;60.008;30.404;2023-07-20T03:17:49;99336.00;;;19.20;65.79
80837;BME280;70251;60.008;30.404;2023-07-20T03:20:17;99343.03;;;19.21;65.89
80837;BME280;70251;60.008;30.404;2023-07-20T03:22:42;99334.31;;;19.19;65.86
80837;BME280;70251;60.008;30.404;2023-07-20T03:25:08;99331.84;;;19.17;65.60
80837;BME280;70251;60.008;30.404;2023-07-20T03:27:34;99345.31;;;19.24;65.50
80837;BME280;70251;60.008;30.404;2023-07-20T03:29:59;99348.63;;;19.26;65.36
80837;BME280;70251;60.008;30.404;2023-07-20T03:32:25;99346.16;;;19.24;65.27
80837;BME280;70251;60.008;30.404;2023-07-20T03:34:50;99349.69;;;19.25;65.21
80837;BME280;70251;60.008;30.404;2023-07-20T03:37:16;99341.16;;;19.21;65.08
80837;BME280;70251;60.008;30.404;2023-07-20T03:39:41;99347.03;;;19.18;65.22
80837;BME280;70251;60.008;30.404;2023-07-20T03:42:07;99348.69;;;19.19;64.87
80837;BME280;70251;60.008;30.404;2023-07-20T03:44:33;99338.34;;;19.16;65.23
80837;BME280;70251;60.008;30.404;2023-07-20T03:46:59;99350.78;;;19.17;65.05
80837;BME280;70251;60.008;30.404;2023-07-20T03:49:24;99351.38;;;19.19;64.76
80837;BME280;70251;60.008;30.404;2023-07-20T03:51:50;99348.69;;;19.19;64.92
80837;BME280;70251;60.008;30.404;2023-07-20T03:54:15;99352.22;;;19.20;65.13
80837;BME280;70251;60.008;30.404;2023-07-20T03:56:41;99356.78;;;19.19;65.13
80837;BME280;70251;60.008;30.404;2023-07-20T03:59:06;99357.63;;;19.20;64.99
80837;BME280;70251;60.008;30.404;2023-07-20T04:01:35;99365.91;;;19.25;65.27
80837;BME280;70251;60.008;30.404;2023-07-20T04:04:10;99349.44;;;19.26;65.21
80837;BME280;70251;60.008;30.404;2023-07-20T04:06:35;99349.44;;;19.26;65.24
80837;BME280;70251;60.008;30.404;2023-07-20T04:09:03;99346.28;;;19.29;65.13
80837;BME280;70251;60.008;30.404;2023-07-20T04:11:28;99353.19;;;19.25;65.71
80837;BME280;70251;60.008;30.404;2023-07-20T04:13:57;99349.81;;;19.30;65.00
80837;BME280;70251;60.008;30.404;2023-07-20T04:16:25;99346.03;;;19.38;65.48
80837;BME280;70251;60.008;30.404;2023-07-20T04:18:52;99350.69;;;19.49;65.48
80837;BME280;70251;60.008;30.404;2023-07-20T04:21:20;99345.59;;;19.59;65.55
80837;BME280;70251;60.008;30.404;2023-07-20T04:23:46;99348.34;;;19.70;65.28
80837;BME280;70251;60.008;30.404;2023-07-20T04:26:12;99355.47;;;19.83;64.82
80837;BME280;70251;60.008;30.404;2023-07-20T04:28:38;99341.75;;;19.84;65.08
80837;BME280;70251;60.008;30.404;2023-07-20T04:31:15;99360.28;;;19.99;64.60
80837;BME280;70251;60.008;30.404;2023-07-20T04:33:41;99351.69;;;20.02;64.33
80837;BME280;70251;60.008;30.404;2023-07-20T04:36:07;99359.13;;;20.06;64.44
80837;BME280;70251;60.008;30.404;2023-07-20T04:38:38;99370.13;;;20.11;64.25
80837;BME280;70251;60.008;30.404;2023-07-20T04:41:04;99366.81;;;20.09;63.69
80837;BME280;70251;60.008;30.404;2023-07-20T04:43:29;99356.31;;;20.01;63.90
80837;BME280;70251;60.008;30.404;2023-07-20T04:45:55;99356.81;;;19.92;63.77
80837;BME280;70251;60.008;30.404;2023-07-20T04:48:20;99353.06;;;19.93;64.05
80837;BME280;70251;60.008;30.404;2023-07-20T04:50:46;99366.97;;;19.96;64.00
80837;BME280;70251;60.008;30.404;2023-07-20T04:53:14;99361.31;;;19.98;63.77
80837;BME280;70251;60.008;30.404;2023-07-20T04:55:48;99352.41;;;19.97;63.73
80837;BME280;70251;60.008;30.404;2023-07-20T04:58:15;99356.06;;;20.03;63.81
80837;BME280;70251;60.008;30.404;2023-07-20T05:00:42;99353.59;;;20.01;63.91
80837;BME280;70251;60.008;30.404;2023-07-20T05:03:07;99339.72;;;20.09;63.90
80837;BME280;70251;60.008;30.404;2023-07-20T05:05:33;99353.50;;;20.08;64.07
80837;BME280;70251;60.008;30.404;2023-07-20T05:07:58;99359.13;;;20.06;63.96
80837;BME280;70251;60.008;30.404;2023-07-20T05:10:24;99356.50;;;20.00;64.55
80837;BME280;70251;60.008;30.404;2023-07-20T05:12:49;99350.06;;;20.01;64.30
80837;BME280;70251;60.008;30.404;2023-07-20T05:15:15;99376.88;;;20.02;64.64
80837;BME280;70251;60.008;30.404;2023-07-20T05:17:41;99349.22;;;20.00;64.58
80837;BME280;70251;60.008;30.404;2023-07-20T05:20:07;99362.59;;;19.95;64.57
80837;BME280;70251;60.008;30.404;2023-07-20T05:22:36;99358.53;;;20.04;64.60
80837;BME280;70251;60.008;30.404;2023-07-20T05:25:08;99355.16;;;20.09;64.31
80837;BME280;70251;60.008;30.404;2023-07-20T05:27:35;99360.56;;;20.09;64.23
80837;BME280;70251;60.008;30.404;2023-07-20T05:30:01;99361.31;;;20.16;64.12
80837;BME280;70251;60.008;30.404;2023-07-20T05:32:29;99381.38;;;20.08;63.94
80837;BME280;70251;60.008;30.404;2023-07-20T05:34:55;99372.91;;;20.05;63.90
80837;BME280;70251;60.008;30.404;2023-07-20T05:37:22;99359.13;;;20.06;63.79
80837;BME280;70251;60.008;30.404;2023-07-20T05:39:48;99363.03;;;20.10;63.93
80837;BME280;70251;60.008;30.404;2023-07-20T05:42:13;99360.72;;;20.14;63.58
80837;BME280;70251;60.008;30.404;2023-07-20T05:44:40;99390.72;;;20.12;63.71
80837;BME280;70251;60.008;30.404;2023-07-20T05:47:06;99349.03;;;20.13;63.86
80837;BME280;70251;60.008;30.404;2023-07-20T05:49:31;99374.59;;;20.18;63.91
80837;BME280;70251;60.008;30.404;2023-07-20T05:51:57;99363.28;;;20.27;63.59
80837;BME280;70251;60.008;30.404;2023-07-20T05:54:29;99367.28;;;20.36;63.71
80837;BME280;70251;60.008;30.404;2023-07-20T05:56:54;99370.81;;;20.25;63.44
80837;BME280;70251;60.008;30.404;2023-07-20T05:59:20;99381.47;;;20.20;63.34
80837;BME280;70251;60.008;30.404;2023-07-20T06:01:47;99379.59;;;20.21;63.13
80837;BME280;70251;60.008;30.404;2023-07-20T06:04:16;99359.97;;;20.25;63.15
80837;BME280;70251;60.008;30.404;2023-07-20T06:06:41;99371.91;;;20.36;62.89
80837;BME280;70251;60.008;30.404;2023-07-20T06:09:07;99362.78;;;20.30;63.04
80837;BME280;70251;60.008;30.404;2023-07-20T06:11:40;99353.53;;;20.38;62.81
80837;BME280;70251;60.008;30.404;2023-07-20T06:14:06;99364.56;;;20.36;62.73
80837;BME280;70251;60.008;30.404;2023-07-20T06:16:32;99372.25;;;20.39;62.30
80837;BME280;70251;60.008;30.404;2023-07-20T06:18:59;99371.78;;;20.42;62.11
80837;BME280;70251;60.008;30.404;2023-07-20T06:21:24;99373.78;;;20.47;61.87
80837;BME280;70251;60.008;30.404;2023-07-20T06:23:50;99382.50;;;20.49;61.01
80837;BME280;70251;60.008;30.404;2023-07-20T06:26:15;99368.16;;;20.48;60.91
80837;BME280;70251;60.008;30.404;2023-07-20T06:28:44;99386.66;;;20.51;60.89
80837;BME280;70251;60.008;30.404;2023-07-20T06:31:09;99391.47;;;20.49;61.08
80837;BME280;70251;60.008;30.404;2023-07-20T06:33:35;99396.44;;;20.52;60.70
80837;BME280;70251;60.008;30.404;2023-07-20T06:36:00;99381.13;;;20.46;60.48
80837;BME280;70251;60.008;30.404;2023-07-20T06:38:31;99383.94;;;20.40;60.77
80837;BME280;70251;60.008;30.404;2023-07-20T06:41:00;99397.13;;;20.48;60.64
80837;BME280;70251;60.008;30.404;2023-07-20T06:43:28;99385.72;;;20.46;60.40
80837;BME280;70251;60.008;30.404;2023-07-20T06:46:05;99403.59;;;20.47;60.34
80837;BME280;70251;60.008;30.404;2023-07-20T06:48:34;99391.81;;;20.41;60.01
80837;BME280;70251;60.008;30.404;2023-07-20T06:50:59;99389.69;;;20.43;59.79
80837;BME280;70251;60.008;30.404;2023-07-20T06:53:25;99421.28;;;20.49;59.90
80837;BME280;70251;60.008;30.404;2023-07-20T06:55:50;99401.97;;;20.57;59.29
80837;BME280;70251;60.008;30.404;2023-07-20T06:58:16;99381.13;;;20.58;58.58
80837;BME280;70251;60.008;30.404;2023-07-20T07:00:44;99412.22;;;20.55;58.85
80837;BME280;70251;60.008;30.404;2023-07-20T07:03:10;99404.00;;;20.62;58.56
80837;BME280;70251;60.008;30.404;2023-07-20T07:05:36;99414.75;;;20.68;58.55
80837;BME280;70251;60.008;30.404;2023-07-20T07:08:04;99414.84;;;20.62;58.79
80837;BME280;70251;60.008;30.404;2023-07-20T07:10:34;99411.09;;;20.63;58.76
80837;BME280;70251;60.008;30.404;2023-07-20T07:13:01;99452.59;;;20.63;58.90
80837;BME280;70251;60.008;30.404;2023-07-20T07:15:33;99415.41;;;20.52;58.57
80837;BME280;70251;60.008;30.404;2023-07-20T07:17:59;99412.56;;;20.47;59.05
80837;BME280;70251;60.008;30.404;2023-07-20T07:20:24;99413.91;;;20.56;58.67
80837;BME280;70251;60.008;30.404;2023-07-20T07:22:50;99417.47;;;20.68;58.51
80837;BME280;70251;60.008;30.404;2023-07-20T07:25:20;99404.78;;;20.80;58.19
80837;BME280;70251;60.008;30.404;2023-07-20T07:27:45;99420.44;;;20.78;57.85
80837;BME280;70251;60.008;30.404;2023-07-20T07:30:12;99408.50;;;20.68;57.57
80837;BME280;70251;60.008;30.404;2023-07-20T07:32:37;99413.13;;;20.67;57.61
80837;BME280;70251;60.008;30.404;2023-07-20T07:35:05;99396.16;;;20.72;57.37
80837;BME280;70251;60.008;30.404;2023-07-20T07:37:43;99418.44;;;20.74;57.57
80837;BME280;70251;60.008;30.404;2023-07-20T07:40:11;99421.69;;;20.64;57.48
80837;BME280;70251;60.008;30.404;2023-07-20T07:42:45;99430.50;;;20.60;58.22
80837;BME280;70251;60.008;30.404;2023-07-20T07:45:11;99419.47;;;20.61;57.88
80837;BME280;70251;60.008;30.404;2023-07-20T07:47:37;99436.09;;;20.65;58.09
80837;BME280;70251;60.008;30.404;2023-07-20T07:50:14;99440.66;;;20.64;57.72
80837;BME280;70251;60.008;30.404;2023-07-20T07:52:40;99425.16;;;20.71;57.65
80837;BME280;70251;60.008;30.404;2023-07-20T07:55:05;99425.53;;;20.86;57.43
80837;BME280;70251;60.008;30.404;2023-07-20T07:57:31;99436.22;;;21.11;57.16
80837;BME280;70251;60.008;30.404;2023-07-20T08:00:09;99430.69;;;21.18;56.93
80837;BME280;70251;60.008;30.404;2023-07-20T08:02:41;99426.94;;;21.19;56.89
80837;BME280;70251;60.008;30.404;2023-07-20T08:05:12;99423.63;;;21.17;56.32
80837;BME280;70251;60.008;30.404;2023-07-20T08:07:38;99423.13;;;21.20;56.64
80837;BME280;70251;60.008;30.404;2023-07-20T08:10:16;99418.66;;;21.14;56.81
80837;BME280;70251;60.008;30.404;2023-07-20T08:12:48;99433.53;;;21.23;56.89
80837;BME280;70251;60.008;30.404;2023-07-20T08:15:14;99408.03;;;21.24;56.52
80837;BME280;70251;60.008;30.404;2023-07-20T08:17:42;99437.31;;;21.45;56.33
80837;BME280;70251;60.008;30.404;2023-07-20T08:20:12;99418.44;;;21.50;56.16
80837;BME280;70251;60.008;30.404;2023-07-20T08:22:42;99402.47;;;21.53;55.94
80837;BME280;70251;60.008;30.404;2023-07-20T08:25:13;99440.50;;;21.53;55.87
80837;BME280;70251;60.008;30.404;2023-07-20T08:27:44;99447.09;;;21.34;56.13
80837;BME280;70251;60.008;30.404;2023-07-20T08:30:13;99434.81;;;21.32;55.88
80837;BME280;70251;60.008;30.404;2023-07-20T08:32:38;99428.34;;;21.44;55.94
80837;BME280;70251;60.008;30.404;2023-07-20T08:38:36;99419.59;;;21.54;55.31
80837;BME280;70251;60.008;30.404;2023-07-20T08:41:02;99437.06;;;21.70;55.27
80837;BME280;70251;60.008;30.404;2023-07-20T08:43:28;99437.75;;;21.77;54.94
80837;BME280;70251;60.008;30.404;2023-07-20T08:45:55;99430.81;;;21.69;55.33
80837;BME280;70251;60.008;30.404;2023-07-20T08:48:25;99425.97;;;21.59;55.42
80837;BME280;70251;60.008;30.404;2023-07-20T08:50:52;99436.81;;;21.71;55.15
80837;BME280;70251;60.008;30.404;2023-07-20T08:53:20;99432.44;;;21.82;55.31
80837;BME280;70251;60.008;30.404;2023-07-20T08:55:45;99440.84;;;21.80;55.06
80837;BME280;70251;60.008;30.404;2023-07-20T08:58:14;99437.88;;;21.70;55.36
80837;BME280;70251;60.008;30.404;2023-07-20T09:01:01;99455.72;;;21.43;55.12
80837;BME280;70251;60.008;30.404;2023-07-20T09:03:27;99434.94;;;21.37;55.22
80837;BME280;70251;60.008;30.404;2023-07-20T09:05:53;99432.13;;;21.43;54.85
80837;BME280;70251;60.008;30.404;2023-07-20T09:08:19;99451.72;;;21.57;54.56
80837;BME280;70251;60.008;30.404;2023-07-20T09:10:45;99442.03;;;21.84;54.35
80837;BME280;70251;60.008;30.404;2023-07-20T09:13:14;99427.00;;;22.05;53.89
80837;BME280;70251;60.008;30.404;2023-07-20T09:15:46;99442.41;;;22.27;53.69
80837;BME280;70251;60.008;30.404;2023-07-20T09:18:12;99441.44;;;22.33;53.62
80837;BME280;70251;60.008;30.404;2023-07-20T09:20:38;99444.97;;;22.34;53.23
80837;BME280;70251;60.008;30.404;2023-07-20T09:23:06;99442.16;;;22.29;52.96
80837;BME280;70251;60.008;30.404;2023-07-20T09:25:32;99429.41;;;22.29;52.51
80837;BME280;70251;60.008;30.404;2023-07-20T09:28:02;99443.00;;;22.58;51.12
80837;BME280;70251;60.008;30.404;2023-07-20T09:30:30;99449.44;;;22.80;51.48
80837;BME280;70251;60.008;30.404;2023-07-20T09:32:55;99455.34;;;22.77;50.53
80837;BME280;70251;60.008;30.404;2023-07-20T09:35:22;99449.25;;;22.70;50.12
80837;BME280;70251;60.008;30.404;2023-07-20T09:37:58;99471.16;;;22.52;49.82
80837;BME280;70251;60.008;30.404;2023-07-20T09:40:25;99458.19;;;22.42;50.29
80837;BME280;70251;60.008;30.404;2023-07-20T09:42:52;99451.41;;;22.56;50.12
80837;BME280;70251;60.008;30.404;2023-07-20T09:45:19;99438.28;;;22.65;49.36
80837;BME280;70251;60.008;30.404;2023-07-20T09:47:45;99455.41;;;22.65;49.47
80837;BME280;70251;60.008;30.404;2023-07-20T09:50:10;99420.13;;;22.70;49.54
80837;BME280;70251;60.008;30.404;2023-07-20T09:52:40;99459.59;;;22.45;48.78
80837;BME280;70251;60.008;30.404;2023-07-20T09:55:08;99454.09;;;22.28;49.02
80837;BME280;70251;60.008;30.404;2023-07-20T09:57:34;99475.03;;;22.27;49.84
80837;BME280;70251;60.008;30.404;2023-07-20T10:00:03;99472.38;;;22.44;50.08
80837;BME280;70251;60.008;30.404;2023-07-20T10:02:36;99455.88;;;22.62;49.89
80837;BME280;70251;60.008;30.404;2023-07-20T10:05:10;99450.44;;;22.90;50.12
80837;BME280;70251;60.008;30.404;2023-07-20T10:07:49;99452.59;;;23.22;48.51
80837;BME280;70251;60.008;30.404;2023-07-20T10:10:16;99448.41;;;23.14;48.65
80837;BME280;70251;60.008;30.404;2023-07-20T10:12:51;99469.66;;;23.00;48.88
80837;BME280;70251;60.008;30.404;2023-07-20T10:15:22;99483.97;;;22.79;49.32
80837;BME280;70251;60.008;30.404;2023-07-20T10:17:56;99457.47;;;22.75;49.33
80837;BME280;70251;60.008;30.404;2023-07-20T10:20:23;99461.28;;;22.74;49.81
80837;BME280;70251;60.008;30.404;2023-07-20T10:22:49;99463.50;;;22.77;49.10
80837;BME280;70251;60.008;30.404;2023-07-20T10:25:18;99463.03;;;22.80;48.68
80837;BME280;70251;60.008;30.404;2023-07-20T10:27:45;99483.97;;;22.79;48.24
80837;BME280;70251;60.008;30.404;2023-07-20T10:30:12;99468.78;;;22.83;47.63
80837;BME280;70251;60.008;30.404;2023-07-20T10:32:40;99471.00;;;23.14;47.69
80837;BME280;70251;60.008;30.404;2023-07-20T10:35:16;99472.34;;;23.45;46.43
80837;BME280;70251;60.008;30.404;2023-07-20T10:38:01;99467.56;;;23.52;46.15
80837;BME280;70251;60.008;30.404;2023-07-20T10:40:36;99462.59;;;23.66;45.44
80837;BME280;70251;60.008;30.404;2023-07-20T10:43:08;99459.91;;;23.87;45.63
80837;BME280;70251;60.008;30.404;2023-07-20T10:48:17;99458.94;;;24.37;45.27
80837;BME280;70251;60.008;30.404;2023-07-20T10:50:43;99459.66;;;24.49;45.65
80837;BME280;70251;60.008;30.404;2023-07-20T10:53:13;99457.59;;;24.61;45.81
80837;BME280;70251;60.008;30.404;2023-07-20T10:55:40;99474.84;;;24.45;45.87
80837;BME280;70251;60.008;30.404;2023-07-20T10:58:13;99472.06;;;24.18;46.11
80837;BME280;70251;60.008;30.404;2023-07-20T11:01:01;99481.00;;;23.59;46.85
80837;BME280;70251;60.008;30.404;2023-07-20T11:03:37;99466.75;;;23.35;47.36
80837;BME280;70251;60.008;30.404;2023-07-20T11:06:42;99463.34;;;23.61;46.63
80837;BME280;70251;60.008;30.404;2023-07-20T11:09:10;99460.94;;;23.65;46.56
80837;BME280;70251;60.008;30.404;2023-07-20T11:11:44;99465.03;;;23.84;46.62
80837;BME280;70251;60.008;30.404;2023-07-20T11:14:20;99470.97;;;23.98;46.22
80837;BME280;70251;60.008;30.404;2023-07-20T11:16:49;99453.25;;;24.17;46.03
80837;BME280;70251;60.008;30.404;2023-07-20T11:19:26;99444.94;;;24.28;45.00
80837;BME280;70251;60.008;30.404;2023-07-20T11:21:53;99448.50;;;24.29;45.04
80837;BME280;70251;60.008;30.404;2023-07-20T11:24:30;99453.00;;;24.40;44.90
80837;BME280;70251;60.008;30.404;2023-07-20T11:26:56;99441.88;;;24.46;44.39
80837;BME280;70251;60.008;30.404;2023-07-20T11:29:27;99438.25;;;24.41;44.90
80837;BME280;70251;60.008;30.404;2023-07-20T11:31:56;99435.41;;;24.52;44.21
80837;BME280;70251;60.008;30.404;2023-07-20T11:34:25;99453.66;;;24.52;43.46
80837;BME280;70251;60.008;30.404;2023-07-20T11:36:51;99451.88;;;24.62;43.71
80837;BME280;70251;60.008;30.404;2023-07-20T11:39:19;99458.78;;;24.70;43.16
80837;BME280;70251;60.008;30.404;2023-07-20T11:42:06;99454.22;;;24.76;42.40
80837;BME280;70251;60.008;30.404;2023-07-20T11:44:32;99446.09;;;24.81;42.68
80837;BME280;70251;60.008;30.404;2023-07-20T11:47:08;99457.13;;;24.69;42.69
80837;BME280;70251;60.008;30.404;2023-07-20T11:49:57;99456.50;;;24.62;43.05
80837;BME280;70251;60.008;30.404;2023-07-20T11:52:30;99463.50;;;24.53;43.25
80837;BME280;70251;60.008;30.404;2023-07-20T11:54:57;99454.69;;;24.46;43.05
80837;BME280;70251;60.008;30.404;2023-07-20T11:57:23;99464.31;;;24.53;43.20
80837;BME280;70251;60.008;30.404;2023-07-20T11:59:55;99454.19;;;24.49;42.72
80837;BME280;70251;60.008;30.404;2023-07-20T12:02:23;99456.91;;;24.49;42.23
80837;BME280;70251;60.008;30.404;2023-07-20T12:04:50;99472.00;;;24.78;42.50
80837;BME280;70251;60.008;30.404;2023-07-20T12:07:16;99453.59;;;24.95;41.97
80837;BME280;70251;60.008;30.404;2023-07-20T12:09:42;99447.66;;;25.03;41.81
80837;BME280;70251;60.008;30.404;2023-07-20T12:12:13;99455.00;;;24.98;41.60
80837;BME280;70251;60.008;30.404;2023-07-20T12:14:39;99446.00;;;25.02;41.81
80837;BME280;70251;60.008;30.404;2023-07-20T12:17:08;99453.28;;;25.18;40.86
80837;BME280;70251;60.008;30.404;2023-07-20T12:19:38;99453.91;;;25.30;41.09
80837;BME280;70251;60.008;30.404;2023-07-20T12:22:07;99444.66;;;25.36;40.46
80837;BME280;70251;60.008;30.404;2023-07-20T12:24:32;99444.53;;;25.48;39.97
80837;BME280;70251;60.008;30.404;2023-07-20T12:27:01;99445.47;;;25.32;40.07
80837;BME280;70251;60.008;30.404;2023-07-20T12:29:27;99461.31;;;25.35;40.42
80837;BME280;70251;60.008;30.404;2023-07-20T12:31:53;99460.91;;;25.21;39.89
80837;BME280;70251;60.008;30.404;2023-07-20T12:34:21;99450.13;;;25.05;39.40
80837;BME280;70251;60.008;30.404;2023-07-20T12:36:51;99456.00;;;25.18;39.12
80837;BME280;70251;60.008;30.404;2023-07-20T12:39:16;99468.19;;;25.06;38.35
80837;BME280;70251;60.008;30.404;2023-07-20T12:41:45;99444.50;;;24.85;38.49
80837;BME280;70251;60.008;30.404;2023-07-20T12:44:11;99469.78;;;24.75;39.43
80837;BME280;70251;60.008;30.404;2023-07-20T12:46:40;99461.91;;;24.79;39.12
80837;BME280;70251;60.008;30.404;2023-07-20T12:49:09;99462.72;;;24.79;39.01
80837;BME280;70251;60.008;30.404;2023-07-20T12:51:34;99462.56;;;24.91;38.96
80837;BME280;70251;60.008;30.404;2023-07-20T12:54:00;99455.22;;;24.91;38.98
80837;BME280;70251;60.008;30.404;2023-07-20T12:56:31;99448.06;;;24.85;38.16
80837;BME280;70251;60.008;30.404;2023-07-20T12:58:57;99473.53;;;24.96;37.95
80837;BME280;70251;60.008;30.404;2023-07-20T13:01:27;99471.34;;;24.71;38.11
80837;BME280;70251;60.008;30.404;2023-07-20T13:03:53;99474.63;;;24.73;38.45
80837;BME280;70251;60.008;30.404;2023-07-20T13:06:19;99444.06;;;24.71;38.45
80837;BME280;70251;60.008;30.404;2023-07-20T13:08:45;99455.34;;;24.80;38.31
80837;BME280;70251;60.008;30.404;2023-07-20T13:11:14;99456.25;;;24.85;38.43